createdAt,value
2023-04-25T00:02:13.142Z,99759.48
2023-04-25T00:05:39.387Z,99759.31
2023-04-25T00:08:14.817Z,99756.30
2023-04-25T00:10:58.157Z,99754.92
2023-04-25T00:13:57.952Z,99751.16
2023-04-25T00:16:57.651Z,99749.33
2023-04-25T00:19:59.700Z,99751.48
2023-04-25T00:22:40.670Z,99746.91
2023-04-25T00:25:17.097Z,99744.14
2023-04-25T00:27:55.864Z,99743.61
2023-04-25T00:30:36.019Z,99740.73
2023-04-25T00:33:20.337Z,99732.01
2023-04-25T00:36:21.174Z,99727.80
2023-04-25T00:39:04.493Z,99726.52
2023-04-25T00:41:43.232Z,99722.83
2023-04-25T00:44:24.378Z,99721.70
2023-04-25T00:47:21.282Z,99719.22
2023-04-25T00:49:51.014Z,99718.46
2023-04-25T00:53:27.644Z,99719.04
2023-04-25T00:56:14.864Z,99717.82
2023-04-25T00:58:58.727Z,99721.05
2023-04-25T01:01:39.070Z,99725.58
2023-04-25T01:04:15.184Z,99719.01
2023-04-25T01:07:10.295Z,99733.98
2023-04-25T01:09:55.106Z,99732.23
2023-04-25T01:12:57.923Z,99729.67
2023-04-25T01:15:37.224Z,99729.91
2023-04-25T01:18:09.625Z,99727.41
2023-04-25T01:20:49.447Z,99723.14
2023-04-25T01:23:32.877Z,99724.55
2023-04-25T01:26:07.190Z,99723.73
2023-04-25T01:29:09.290Z,99717.67
2023-04-25T01:32:00.527Z,99716.67
2023-04-25T01:34:45.140Z,99718.64
2023-04-25T01:37:42.058Z,99723.58
2023-04-25T01:40:19.106Z,99718.05
2023-04-25T01:42:55.477Z,99721.41
2023-04-25T01:45:41.947Z,99720.73
2023-04-25T01:48:19.386Z,99716.58
2023-04-25T01:51:01.392Z,99713.39
2023-04-25T01:54:06.040Z,99707.89
2023-04-25T01:56:48.986Z,99704.00
2023-04-25T01:59:40.292Z,99701.32
2023-04-25T02:02:55.461Z,99705.95
2023-04-25T02:05:48.569Z,99701.66
2023-04-25T02:08:47.972Z,99693.17
2023-04-25T02:11:26.817Z,99693.23
2023-04-25T02:14:49.342Z,99689.74
2023-04-25T02:18:08.013Z,99685.09
2023-04-25T02:20:58.425Z,99685.98
2023-04-25T02:23:36.636Z,99685.79
2023-04-25T02:29:50.594Z,99684.74
2023-04-25T02:32:34.017Z,99682.18
2023-04-25T02:35:13.935Z,99684.83
2023-04-25T02:37:59.990Z,99684.02
2023-04-25T02:40:39.505Z,99682.02
2023-04-25T02:43:18.777Z,99679.06
2023-04-25T02:45:57.903Z,99678.90
2023-04-25T02:48:32.936Z,99681.08
2023-04-25T02:51:30.417Z,99679.04
2023-04-25T02:54:21.480Z,99680.95
2023-04-25T02:57:22.671Z,99686.42
2023-04-25T02:59:57.781Z,99684.39
2023-04-25T03:02:49.210Z,99686.48
2023-04-25T03:05:46.837Z,99689.15
2023-04-25T03:09:30.439Z,99690.55
2023-04-25T03:15:08.742Z,99688.40
2023-04-25T03:17:47.338Z,99689.61
2023-04-25T03:20:23.938Z,99687.55
2023-04-25T03:23:29.341Z,99692.04
2023-04-25T03:26:29.061Z,99695.84
2023-04-25T03:30:16.173Z,99695.67
2023-04-25T03:33:05.178Z,99692.05
2023-04-25T03:35:45.545Z,99693.30
2023-04-25T03:38:28.517Z,99693.02
2023-04-25T03:41:00.111Z,99688.56
2023-04-25T03:43:59.178Z,99687.33
2023-04-25T03:46:55.309Z,99684.08
2023-04-25T03:49:36.301Z,99679.77
2023-04-25T03:52:09.067Z,99677.82
2023-04-25T03:54:48.915Z,99680.60
2023-04-25T03:57:29.522Z,99681.63
2023-04-25T04:00:04.823Z,99686.77
2023-04-25T04:03:35.140Z,99689.91
2023-04-25T04:06:11.862Z,99683.63
2023-04-25T04:09:23.054Z,99682.39
2023-04-25T04:21:03.821Z,99675.20
2023-04-25T04:24:55.574Z,99668.29
2023-04-25T04:29:22.348Z,99667.11
2023-04-25T04:40:57.045Z,99659.32
2023-04-25T04:48:51.166Z,99662.59
2023-04-25T04:55:19.543Z,99660.84
2023-04-25T04:59:07.002Z,99657.77
2023-04-25T05:03:11.092Z,99654.54
2023-04-25T05:34:56.862Z,99645.04
2023-04-25T05:38:04.081Z,99648.68
2023-04-25T05:41:40.304Z,99646.55
2023-04-25T05:45:44.691Z,99640.87
2023-04-25T05:49:20.658Z,99637.16
2023-04-25T05:52:51.698Z,99629.98
2023-04-25T05:56:37.286Z,99627.05
2023-04-25T06:04:06.883Z,99618.56
2023-04-25T06:07:25.107Z,99618.26
2023-04-25T06:10:11.195Z,99613.14
2023-04-25T06:18:21.875Z,99615.33
2023-04-25T06:22:27.968Z,99613.22
2023-04-25T06:38:33.208Z,99598.79
2023-04-25T06:41:36.933Z,99600.30
2023-04-25T06:44:24.495Z,99598.73
2023-04-25T06:47:14.916Z,99594.55
2023-04-25T06:59:23.016Z,99596.88
2023-04-25T07:02:13.329Z,99599.66
2023-04-25T07:09:57.203Z,99602.36
2023-04-25T07:12:35.010Z,99595.20
2023-04-25T07:15:24.450Z,99599.09
2023-04-25T07:18:32.225Z,99597.51
2023-04-25T07:26:06.926Z,99595.08
2023-04-25T07:29:27.863Z,99590.60
2023-04-25T07:32:50.547Z,99590.52
2023-04-25T07:35:38.757Z,99590.78
2023-04-25T07:38:13.002Z,99589.08
2023-04-25T07:41:00.785Z,99592.36
2023-04-25T07:43:56.595Z,99590.42
2023-04-25T07:46:52.284Z,99586.66
2023-04-25T07:53:38.852Z,99584.45
2023-04-25T07:56:53.656Z,99581.55
2023-04-25T07:59:35.188Z,99582.91
2023-04-25T08:02:37.802Z,99582.15
2023-04-25T08:05:51.359Z,99574.45
2023-04-25T08:09:03.946Z,99573.05
2023-04-25T08:12:36.972Z,99569.96
2023-04-25T08:15:34.824Z,99570.38
2023-04-25T08:18:42.757Z,99563.47
2023-04-25T08:26:01.613Z,99558.17
2023-04-25T08:28:45.954Z,99555.66
2023-04-25T08:32:05.194Z,99555.50
2023-04-25T08:34:49.758Z,99548.20
2023-04-25T08:37:32.626Z,99537.17
2023-04-25T08:40:10.044Z,99541.27
2023-04-25T08:43:14.128Z,99538.41
2023-04-25T08:45:55.544Z,99539.70
2023-04-25T08:48:37.699Z,99542.93
2023-04-25T08:51:30.970Z,99541.50
2023-04-25T08:54:35.608Z,99542.06
2023-04-25T08:57:25.154Z,99537.48
2023-04-25T09:04:23.361Z,99529.16
2023-04-25T09:07:11.100Z,99526.20
2023-04-25T09:10:20.606Z,99522.59
2023-04-25T09:13:32.731Z,99528.45
2023-04-25T09:17:05.794Z,99518.98
2023-04-25T09:20:40.451Z,99510.77
2023-04-25T09:23:25.624Z,99513.02
2023-04-25T09:27:32.431Z,99510.52
2023-04-25T09:30:21.568Z,99508.02
2023-04-25T09:33:45.564Z,99507.26
2023-04-25T10:00:52.739Z,99488.10
2023-04-25T10:03:58.659Z,99481.86
2023-04-25T10:12:53.035Z,99472.23
2023-04-25T10:25:39.365Z,99456.58
2023-04-25T10:28:59.058Z,99455.61
2023-04-25T10:32:01.209Z,99459.63
2023-04-25T10:34:58.702Z,99464.61
2023-04-25T10:42:56.699Z,99464.42
2023-04-25T10:59:27.073Z,99456.90
2023-04-25T11:02:23.922Z,99455.67
2023-04-25T11:05:58.280Z,99438.60
2023-04-25T11:10:01.340Z,99443.92
2023-04-25T11:22:24.398Z,99422.40
2023-04-25T11:31:13.615Z,99411.37
2023-04-25T11:34:33.330Z,99418.24
2023-04-25T12:11:00.699Z,99381.42
2023-04-25T12:18:25.129Z,99366.81
2023-04-25T12:22:32.488Z,99368.12
2023-04-25T12:31:02.972Z,99353.65
2023-04-25T12:42:39.292Z,99337.81
2023-04-25T13:06:43.746Z,99322.79
2023-04-25T13:17:11.421Z,99306.48
2023-04-25T13:20:31.042Z,99302.15
2023-04-25T13:28:45.265Z,99299.77
2023-04-25T13:31:55.566Z,99302.75
2023-04-25T13:35:22.671Z,99301.71
2023-04-25T13:38:01.288Z,99292.10
2023-04-25T13:41:08.621Z,99291.12
2023-04-25T13:43:53.542Z,99288.48
2023-04-25T13:46:53.624Z,99286.52
2023-04-25T13:49:38.383Z,99284.71
2023-04-25T13:53:03.490Z,99278.43
2023-04-25T13:55:53.686Z,99274.64
2023-04-25T13:58:39.763Z,99278.42
2023-04-25T14:02:10.160Z,99269.25
2023-04-25T14:08:32.116Z,99268.69
2023-04-25T14:11:28.253Z,99266.94
2023-04-25T14:14:18.991Z,99262.44
2023-04-25T14:17:16.648Z,99263.02
2023-04-25T14:20:15.841Z,99262.77
2023-04-25T14:23:07.146Z,99264.23
2023-04-25T14:27:03.793Z,99256.03
2023-04-25T14:30:28.690Z,99261.42
2023-04-25T14:33:29.147Z,99258.92
2023-04-25T14:36:29.535Z,99251.71
2023-04-25T14:39:25.721Z,99246.64
2023-04-25T14:42:25.824Z,99245.96
2023-04-25T14:45:50.514Z,99244.14
2023-04-25T14:48:54.777Z,99241.15
2023-04-25T14:51:32.786Z,99242.80
2023-04-25T14:55:01.949Z,99239.34
2023-04-25T14:58:16.493Z,99238.20
2023-04-25T15:01:32.454Z,99237.25
2023-04-25T15:04:20.063Z,99237.11
2023-04-25T15:07:45.573Z,99234.50
2023-04-25T15:11:03.840Z,99233.97
2023-04-25T15:13:54.109Z,99230.94
2023-04-25T15:16:40.819Z,99225.67
2023-04-25T15:20:01.059Z,99225.24
2023-04-25T15:26:44.442Z,99219.81
2023-04-25T15:29:41.176Z,99212.38
2023-04-25T15:32:43.133Z,99212.08
2023-04-25T15:36:10.899Z,99215.21
2023-04-25T15:38:46.112Z,99214.64
2023-04-25T15:42:17.799Z,99213.42
2023-04-25T15:45:32.920Z,99203.42
2023-04-25T15:48:42.249Z,99202.81
2023-04-25T15:52:24.033Z,99202.63
2023-04-25T15:56:06.193Z,99193.66
2023-04-25T16:23:12.547Z,99195.36
2023-04-25T16:39:22.055Z,99203.04
2023-04-25T16:43:05.329Z,99199.56
2023-04-25T16:46:50.391Z,99199.64
2023-04-25T16:54:21.426Z,99201.02
2023-04-25T16:57:05.188Z,99203.80
2023-04-25T17:08:16.664Z,99204.54
2023-04-25T17:11:12.237Z,99206.33
2023-04-25T17:15:00.373Z,99210.35
2023-04-25T17:18:24.539Z,99216.30
2023-04-25T17:22:16.979Z,99215.38
2023-04-25T17:40:54.078Z,99233.65
2023-04-25T17:48:42.213Z,99234.61
2023-04-25T17:56:43.752Z,99247.27
2023-04-25T18:00:32.286Z,99246.95
2023-04-25T18:04:32.579Z,99250.71
2023-04-25T18:12:20.299Z,99256.31
2023-04-25T18:15:11.960Z,99254.42
2023-04-25T18:36:45.059Z,99264.86
2023-04-25T18:41:10.762Z,99266.02
2023-04-25T18:45:05.095Z,99266.03
2023-04-25T18:48:55.179Z,99265.15
2023-04-25T19:01:21.761Z,99280.10
2023-04-25T19:04:06.747Z,99278.21
2023-04-25T19:11:10.822Z,99282.23
2023-04-25T19:19:44.966Z,99291.27
2023-04-25T19:41:50.081Z,99297.27
2023-04-25T19:49:52.686Z,99300.23
2023-04-25T20:15:05.894Z,99305.83
2023-04-25T20:37:33.217Z,99293.73
2023-04-25T20:41:58.657Z,99311.89
2023-04-25T20:59:31.831Z,99303.82
2023-04-25T21:07:46.790Z,99316.64
2023-04-25T21:11:32.428Z,99314.15
2023-04-25T21:19:37.871Z,99318.73
2023-04-25T21:27:44.021Z,99318.91
2023-04-25T21:30:29.058Z,99321.32
2023-04-25T21:33:29.363Z,99325.67
2023-04-25T21:36:04.708Z,99321.73
2023-04-25T21:43:09.740Z,99320.84
2023-04-25T21:51:06.379Z,99327.52
2023-04-25T21:54:40.484Z,99331.45
2023-04-25T21:58:21.274Z,99330.64
2023-04-25T22:01:24.880Z,99330.98
2023-04-25T22:03:58.192Z,99325.16
2023-04-25T22:06:37.898Z,99324.80
2023-04-25T22:14:37.274Z,99328.15
2023-04-25T22:17:14.781Z,99329.04
2023-04-25T22:20:19.657Z,99324.98
2023-04-25T22:23:49.791Z,99321.48
2023-04-25T22:26:55.947Z,99297.91
2023-04-25T22:29:31.701Z,99311.37
2023-04-25T22:41:08.787Z,99306.63
2023-04-25T22:43:50.268Z,99305.96
2023-04-25T22:46:39.696Z,99308.52
2023-04-25T22:49:20.469Z,99306.96
2023-04-25T22:51:59.382Z,99306.16
2023-04-25T22:55:12.616Z,99300.67
2023-04-25T22:58:13.071Z,99305.39
2023-04-25T23:01:18.255Z,99303.00
2023-04-25T23:04:20.955Z,99298.02
2023-04-25T23:07:09.674Z,99285.06
2023-04-25T23:10:25.318Z,99298.84
2023-04-25T23:13:18.829Z,99296.08
2023-04-25T23:16:57.549Z,99286.10
2023-04-25T23:20:12.150Z,99300.84
2023-04-25T23:22:59.799Z,99302.39
2023-04-25T23:25:51.267Z,99303.30
2023-04-25T23:28:28.610Z,99301.80
2023-04-25T23:31:15.785Z,99298.64
2023-04-25T23:34:01.080Z,99301.03
2023-04-25T23:36:41.777Z,99302.70
2023-04-25T23:39:32.426Z,99306.89
2023-04-25T23:42:52.753Z,99308.12
2023-04-25T23:45:24.364Z,99314.53
2023-04-25T23:48:22.342Z,99312.75
2023-04-25T23:50:57.908Z,99313.63
2023-04-25T23:53:42.134Z,99312.43
2023-04-25T23:57:06.922Z,99311.40
2023-04-25T23:59:46.547Z,99316.20
